Darien, GA (31305)

3:09 AM EDT on July 28, 2015 (GMT -0400)
Country Walk | | Change Station
CLOSE
Current Station
Personal Weather Station
Location: Brunswick, GA
Elevation: 30 ft
Nearby Weather Stations

Elev 30 ft 31.27 °N, 81.48 °W | Updated 2 minutes ago

Mostly Cloudy
Mostly Cloudy
76.6 °F
Feels Like 77 °F
N
0.0
Wind Variable Wind from ENE
Gusts 0.0 mph

Today
High -- | Low -- °F
--% Chance of Precip.
Yesterday
High -- | Low -- °F
Precip. -- in
6:39 AM 8:24 PM
Waxing Gibbous, 87% visible
Pressure 29.94 in
Visibility 10.0 miles
Clouds Scattered Clouds 1600 ft
Scattered Clouds 2300 ft
Heat Index 77 °F
Dew Point 76 °F
Humidity 99%
Rainfall 0.00 in
Snow Depth Not available.
UV 0.0 out of 12
Pollen 2.90 out of 12
Air Quality Not available.
Flu Activity Not available.
METAR KSSI 280653Z AUTO 00000KT 10SM SCT016 SCT023 27/24 A2993 RMK AO2 SLP138 T02670244

More Conditions Fewer Conditions

Pressure 29.94 in
Visibility 10.0 miles
Clouds Scattered Clouds 1600 ft
Scattered Clouds 2300 ft
Heat Index 77 °F
Dew Point 76 °F
Humidity 99%
Rainfall 0.00 in
Snow Depth Not available.
UV 0.0 out of 12
Pollen 2.90 out of 12
Air Quality Not available.
Flu Activity Not available.
METAR KSSI 280653Z AUTO 00000KT 10SM SCT016 SCT023 27/24 A2993 RMK AO2 SLP138 T02670244

More Conditions Fewer Conditions

10-Day Weather Forecast

×

Almanac

Astronomy

Jul. 28, 2015 Rise Set
Actual Time
Civil Twilight
Nautical Twilight
Astronomical Twilight
Moon
Length of Visible Light
Length of Day
Tomorrow will be .
, % of the Moon is Illuminated

Today's Extremes

State Highs State Lows

Community

WunderPhotos

Upload Photos

1,841,796 photos uploaded!

WunderBlogs® & News

Nearby

Air Quality

  Air Quality AQ Index Pollutant
Not available.

Snow Depth

Station Depth Elevation

Earthquake Activity

City Distance Mag. Time & Date
Minimum magnitude displayed is 2.5.

Coastal Water Temperatures

Place Temperature

Stations

Nearby Weather Stations

Station Location Temp. Windchill Dew Point Humidity Wind Precip. Elev Updated Type